Un Karadeniz — TCTD3 — position and weather

sailwx.info

Track history (hours):
 
Tides and Currents Weather Stations Pressure Air Temp Water Temp Dewpoint Dewpoint Depression Visibility Wind Speed Wind Dir Waves Ship Positions

Un Karadeniz

Last reported at 2017-Mar-25 05:22 UTC. Time now 2017-Mar-25 21:44 UTC.
Position N 38°43' E 019°49'.

Length 193 m; draft 6.6 m.

Type: Cargo ship. MMSI: 271002571.

Date/timePositionNaut miles runAvg speedWind from/ knotsBaromVisibWave heightAir tempDewpointWater temp
2017-Mar-25 05:22N 38°43' E 019°49'3820.4
2017-Mar-25 03:30N 38°11' E 020°15'  
2017-Mar-20 04:33N 43°26' E 014°47'1919.0
2017-Mar-20 03:33N 43°42' E 014°31'1919.1
2017-Mar-20 02:33N 43°56' E 014°15'1919.0
2017-Mar-20 01:33N 44°12' E 013°59'1918.9
2017-Mar-20 00:33N 44°28' E 013°44'1918.9
2017-Mar-19 23:33N 44°43' E 013°30'1919.0
2017-Mar-19 22:33N 44°59' E 013°16'1918.8
2017-Mar-19 21:33N 45°17' E 013°06'1716.9
2017-Mar-19 20:33N 45°31' E 013°18'1818.3
2017-Mar-19 19:33N 45°39' E 013°42'2 2.0
2017-Mar-19 18:22N 45°39' E 013°45'0 0.0
2017-Mar-19 17:31N 45°39' E 013°45'0 0.0
2017-Mar-19 16:33N 45°39' E 013°45'0 0.0
2017-Mar-19 15:33N 45°39' E 013°45'0 0.0
2017-Mar-19 14:29N 45°39' E 013°45'0 0.0
2017-Mar-19 13:32N 45°39' E 013°45'0 0.0
2017-Mar-19 12:34N 45°39' E 013°45'0 0.0
2017-Mar-19 11:33N 45°39' E 013°45'0 0.0
2017-Mar-19 10:33N 45°39' E 013°45'0 0.0
2017-Mar-19 09:33N 45°39' E 013°45'5 4.7
2017-Mar-19 08:33N 45°38' E 013°38'2019.8
2017-Mar-19 07:33N 45°25' E 013°17'1919.0
2017-Mar-19 06:34N 45°06' E 013°19'2020.1
2017-Mar-19 05:33N 44°48' E 013°32'2020.4
2017-Mar-19 04:33N 44°31' E 013°47'2020.3
2017-Mar-19 03:33N 44°14' E 014°02'  
Track history (hours):
 
Tides and Currents Weather Stations Pressure Air Temp Water Temp Dewpoint Dewpoint Depression Visibility Wind Speed Wind Dir Waves Ship Positions

Un Karadeniz

Last reported at 2017-Mar-25 05:22 UTC. Time now 2017-Mar-25 21:44 UTC.
Position N 38°43' E 019°49'.

Length 193 m; draft 6.6 m.

Type: Cargo ship. MMSI: 271002571.

Date/timePositionNaut miles runAvg speedWind from/ knotsBaromVisibWave heightAir tempDewpointWater temp
2017-Mar-25 05:22N 38°43' E 019°49'3820.4
2017-Mar-25 03:30N 38°11' E 020°15'  
2017-Mar-20 04:33N 43°26' E 014°47'1919.0
2017-Mar-20 03:33N 43°42' E 014°31'1919.1
2017-Mar-20 02:33N 43°56' E 014°15'1919.0
2017-Mar-20 01:33N 44°12' E 013°59'1918.9
2017-Mar-20 00:33N 44°28' E 013°44'1918.9
2017-Mar-19 23:33N 44°43' E 013°30'1919.0
2017-Mar-19 22:33N 44°59' E 013°16'1918.8
2017-Mar-19 21:33N 45°17' E 013°06'1716.9
2017-Mar-19 20:33N 45°31' E 013°18'1818.3
2017-Mar-19 19:33N 45°39' E 013°42'2 2.0
2017-Mar-19 18:22N 45°39' E 013°45'0 0.0
2017-Mar-19 17:31N 45°39' E 013°45'0 0.0
2017-Mar-19 16:33N 45°39' E 013°45'0 0.0
2017-Mar-19 15:33N 45°39' E 013°45'0 0.0
2017-Mar-19 14:29N 45°39' E 013°45'0 0.0
2017-Mar-19 13:32N 45°39' E 013°45'0 0.0
2017-Mar-19 12:34N 45°39' E 013°45'0 0.0
2017-Mar-19 11:33N 45°39' E 013°45'0 0.0
2017-Mar-19 10:33N 45°39' E 013°45'0 0.0
2017-Mar-19 09:33N 45°39' E 013°45'5 4.7
2017-Mar-19 08:33N 45°38' E 013°38'2019.8
2017-Mar-19 07:33N 45°25' E 013°17'1919.0
2017-Mar-19 06:34N 45°06' E 013°19'2020.1
2017-Mar-19 05:33N 44°48' E 013°32'2020.4
2017-Mar-19 04:33N 44°31' E 013°47'2020.3
2017-Mar-19 03:33N 44°14' E 014°02'  

Dump ship's entire track history